台北 の空港の天気 - METARとTAF

台湾桃園国際空港 ( RCTP / TPE ) - 台湾 台北市
飛行場実況気象(Metar)
観測時間12/01 00:30 CST (11/30 16:30 UTC)
風向・風速北東 11m/s
視程10km以上
天気現象
少しの雲 雲底高度 240m
全天の4割程度の雲 雲底高度 370m
全天の8割程度の雲 雲底高度 550m
気温17℃
湿度94%
気圧1022hPa
METARRCTP 301630Z 05022KT 9999 FEW008 SCT012 BKN018 17/16 Q1022 WS ALL RWY NOSIG RMK A3018
過去の天気等 Google飛行場航空写真 Wunderground天気予報

過去48時間のMETAR

飛行場予報(TAF)
発表時間: 11/30 19:00 CST (11/30 11:00 UTC)
予報対象時間: 30日20時 CST ~ 2日2時 CST
風向・風速北東 13m/s
視程10km以上
少しの雲 雲底高度 240m
全天の8割程度の雲 雲底高度 340m
30日20時 CST ~ 1日2時 CST に一時的に
風向・風速北北東 15m/s
視程5000m
天気現象
少しの雲 雲底高度 120m
全天の8割程度の雲 雲底高度 180m
1日2時 CST ~ 1日8時 CST に一時的に
風向・風速北東 10m/s
視程5000m
天気現象
少しの雲 雲底高度 300m
全天の8割程度の雲 雲底高度 640m
1日9時 CST ~ 1日13時 CST に一時的に
少しの雲 雲底高度 300m
全天の8割程度の雲 雲底高度 640m
1日13時 CST ~ 1日19時 CST に一時的に
風向・風速北北東 10m/s
視程4000m
天気現象
少しの雲 雲底高度 120m
全天の8割程度の雲 雲底高度 180m
1日19時 CST ~ 1日21時 CST に徐々に
風向・風速北北東 10m/s
1日21時 CST ~ 2日2時 CST に一時的に
風向・風速北北東 13m/s
少しの雲 雲底高度 120m
全天の8割程度の雲 雲底高度 180m
TAF RCTP 301100Z 3012/0118 04025KT 9999 FEW008 BKN011
TEMPO 3012/3018 03030KT 5000 RA FEW004 BKN006
TEMPO 3018/3024 04020KT 5000 RA FEW010 BKN021
TEMPO 0101/0105 FEW010 BKN021
TEMPO 0105/0111 03020KT 4000 RA FEW004 BKN006
BECMG 0111/0113 03020KT
TEMPO 0113/0118 03025KT FEW004 BKN006